Broadview, NM

2:21 PM MST on November 23, 2014 (GMT -0700)
Clovis Municipal | Change Station
CLOSE
Current Station
Airport
Location: Clovis,
Elevation: 4216 ft
Nearby Weather Stations
Active Advisory: Wind Advisory

Elev 4216 ft 34.43 °N, 103.08 °W | Updated 6 minutes ago

Rain
Rain
45 °F
Feels Like 35 °F
N
26
Wind Variable Wind from North
Gusts 34 mph

Today
High -- | Low -- °F
--% Chance of Precip.
Yesterday
High -- | Low -- °F
Precip. -- in
6:34 AM 4:43 PM
New Moon, 2% visible
Pressure 29.77 in
Visibility 10.0 miles
Clouds Few 2100 ft
Scattered Clouds 4800 ft
Mostly Cloudy 6000 ft
Windchill 35 °F
Dew Point 30 °F
Humidity 57%
Rainfall 0.00 in
Snow Depth Not available.
UV 1 out of 12
Pollen 6.30 out of 12
Air Quality Not available.
Flu Activity Not available.
METAR KCVN 232115Z 01023G30KT 10SM FEW021 SCT048 BKN060 07/M01 A2977 RMK AO1

More Conditions Fewer Conditions

Pressure 29.77 in
Visibility 10.0 miles
Clouds Few 2100 ft
Scattered Clouds 4800 ft
Mostly Cloudy 6000 ft
Windchill 35 °F
Dew Point 30 °F
Humidity 57%
Rainfall 0.00 in
Snow Depth Not available.
UV 1 out of 12
Pollen 6.30 out of 12
Air Quality Not available.
Flu Activity Not available.
METAR KCVN 232115Z 01023G30KT 10SM FEW021 SCT048 BKN060 07/M01 A2977 RMK AO1

More Conditions Fewer Conditions

Nowcast | as of 1:31 PM MST on November 23, 2014

Rain and occasional snow showers will continue through the afternoon over portions of eastern New Mexico as a cold front plunges into the area. Visibilities may temporarily reduce to less than 3 miles in any passing showers...and while a few flurries may occasionally mix in with rain...no accumulation is expected with precipitation amounts of only a few hundredths of an inch. In addition...strong northwest winds will prevail with some gusts reaching 35 to 50 mph. This will create strong cross winds on southwest to northeast oriented roads.

×

10-Day Weather Forecast

Almanac

Astronomy

Nov. 23, 2014 Rise Set
Actual Time
Civil Twilight
Nautical Twilight
Astronomical Twilight
Moon
Length of Visible Light
Length of Day
Tomorrow will be .
, % of the Moon is Illuminated

Today's Extremes

State Highs State Lows

Community

WunderPhotos

Upload Photos

1,773,181 photos uploaded!

WunderBlogs® & News

Nearby

Air Quality

  Air Quality AQ Index Pollutant
Not available.

Snow Depth

Station Depth Elevation

Earthquake Activity

City Distance Mag. Time & Date
Minimum magnitude displayed is 2.5.

Coastal Water Temperatures

Place Temperature

Nearby Weather Stations